PWSweather.com
Personal Weather Stations
Station Observations
KNCGREEN1000
Bell Orchard Drive, Greensboro, NC 27455

Bell Orchard DriveGreensboro, NC 27455

Lat: 36.132, Lon: -79.8

Elevation: 876

Station Type: Acurite Atlas

Http://www.gilhutcheson.com

High Low Average
Temperature 39.8°F4.3°C 32.1°F0.1°C 35.3°F1.8°C
Dew Point 39.7°F4.3°C 24.9°F-3.9°C 33.5°F0.8°C
Winds 8.0 mph 12.9 kmh Calm Calm 3.0 mph E4.8 kmh E
Wind Gusts -- -- --
Humidity 100% 67% 94%
Pressure 30.51 in1033.2 mb 29.80 in1009.1 mb -
Precipitation 0.92 in23.4 mm - -
Hour Temp Dew Point Humidity Winds Wind Gusts Pressure Precip Precip Rate Daily Precip Total
12:03 AM 35.4°F1.9°C 25.8°F-3.4°C 68% 2.0 mph ENE3.2 kmh ENE -- 30.51 in1033.2 mb 0.00 in0.0 mm 0.00 in0.0 mm 0.00 in0.0 mm
12:08 AM 35.3°F1.8°C 25.3°F-3.7°C 67% 3.0 mph ENE4.8 kmh ENE -- 30.51 in1033.2 mb 0.00 in0.0 mm 0.00 in0.0 mm 0.00 in0.0 mm
12:13 AM 35.2°F1.8°C 25.6°F-3.6°C 68% 2.0 mph E3.2 kmh E -- 30.50 in1032.8 mb 0.00 in0.0 mm 0.00 in0.0 mm 0.00 in0.0 mm
12:18 AM 35.1°F1.7°C 25.4°F-3.7°C 68% 3.0 mph NNE4.8 kmh NNE -- 30.50 in1032.8 mb 0.00 in0.0 mm 0.00 in0.0 mm 0.00 in0.0 mm
12:23 AM 34.9°F1.6°C 24.9°F-3.9°C 67% 4.0 mph E6.4 kmh E -- 30.50 in1032.8 mb 0.00 in0.0 mm 0.00 in0.0 mm 0.00 in0.0 mm
12:28 AM 35.0°F1.7°C 25.4°F-3.7°C 68% 3.0 mph N4.8 kmh N -- 30.50 in1032.8 mb 0.00 in0.0 mm 0.00 in0.0 mm 0.00 in0.0 mm
12:33 AM 34.9°F1.6°C 25.3°F-3.7°C 68% 3.0 mph NNE4.8 kmh NNE -- 30.50 in1032.8 mb 0.00 in0.0 mm 0.00 in0.0 mm 0.00 in0.0 mm
12:38 AM 34.9°F1.6°C 25.3°F-3.7°C 68% 3.0 mph NE4.8 kmh NE -- 30.50 in1032.8 mb 0.00 in0.0 mm 0.00 in0.0 mm 0.00 in0.0 mm
12:43 AM 35.0°F1.7°C 25.4°F-3.7°C 68% 3.0 mph NE4.8 kmh NE -- 30.49 in1032.5 mb 0.00 in0.0 mm 0.00 in0.0 mm 0.00 in0.0 mm
12:48 AM 35.0°F1.7°C 25.4°F-3.7°C 68% 4.0 mph NE6.4 kmh NE -- 30.49 in1032.5 mb 0.00 in0.0 mm 0.00 in0.0 mm 0.00 in0.0 mm
12:53 AM 34.8°F1.6°C 25.6°F-3.6°C 69% 2.0 mph NNE3.2 kmh NNE -- 30.49 in1032.5 mb 0.00 in0.0 mm 0.00 in0.0 mm 0.00 in0.0 mm
12:58 AM 35.0°F1.7°C 25.8°F-3.4°C 69% 3.0 mph N4.8 kmh N -- 30.48 in1032.2 mb 0.00 in0.0 mm 0.00 in0.0 mm 0.00 in0.0 mm
01:03 AM 35.0°F1.7°C 25.8°F-3.4°C 69% 2.0 mph NE3.2 kmh NE -- 30.48 in1032.2 mb 0.00 in0.0 mm 0.00 in0.0 mm 0.00 in0.0 mm
01:08 AM 35.0°F1.7°C 25.8°F-3.4°C 69% 3.0 mph NE4.8 kmh NE -- 30.48 in1032.2 mb 0.00 in0.0 mm 0.00 in0.0 mm 0.00 in0.0 mm
01:13 AM 34.9°F1.6°C 26.0°F-3.3°C 70% 2.0 mph E3.2 kmh E -- 30.47 in1031.8 mb 0.00 in0.0 mm 0.00 in0.0 mm 0.00 in0.0 mm
01:18 AM 35.0°F1.7°C 26.5°F-3.1°C 71% 3.0 mph NE4.8 kmh NE -- 30.47 in1031.8 mb 0.00 in0.0 mm 0.00 in0.0 mm 0.00 in0.0 mm
01:23 AM 35.0°F1.7°C 26.5°F-3.1°C 71% 2.0 mph E3.2 kmh E -- 30.47 in1031.8 mb 0.00 in0.0 mm 0.00 in0.0 mm 0.00 in0.0 mm
01:28 AM 35.0°F1.7°C 26.8°F-2.9°C 72% 3.0 mph NNE4.8 kmh NNE -- 30.47 in1031.8 mb 0.00 in0.0 mm 0.00 in0.0 mm 0.00 in0.0 mm
01:33 AM 34.9°F1.6°C 26.3°F-3.2°C 71% Calm Calm -- 30.47 in1031.8 mb 0.00 in0.0 mm 0.00 in0.0 mm 0.00 in0.0 mm
01:38 AM 34.9°F1.6°C 26.3°F-3.2°C 71% 3.0 mph NE4.8 kmh NE -- 30.47 in1031.8 mb 0.00 in0.0 mm 0.00 in0.0 mm 0.00 in0.0 mm
01:43 AM 34.8°F1.6°C 26.3°F-3.2°C 71% 3.0 mph NE4.8 kmh NE -- 30.47 in1031.8 mb 0.00 in0.0 mm 0.00 in0.0 mm 0.00 in0.0 mm
01:48 AM 34.8°F1.6°C 26.3°F-3.2°C 71% 4.0 mph NNW6.4 kmh NNW -- 30.46 in1031.5 mb 0.00 in0.0 mm 0.00 in0.0 mm 0.00 in0.0 mm
01:53 AM 34.8°F1.6°C 26.7°F-2.9°C 72% 3.0 mph NNE4.8 kmh NNE -- 30.46 in1031.5 mb 0.00 in0.0 mm 0.00 in0.0 mm 0.00 in0.0 mm
01:58 AM 34.9°F1.6°C 26.7°F-2.9°C 72% 4.0 mph N6.4 kmh N -- 30.47 in1031.8 mb 0.00 in0.0 mm 0.00 in0.0 mm 0.00 in0.0 mm
02:03 AM 34.8°F1.6°C 26.7°F-2.9°C 72% 4.0 mph NE6.4 kmh NE -- 30.47 in1031.8 mb 0.00 in0.0 mm 0.00 in0.0 mm 0.00 in0.0 mm
02:08 AM 34.8°F1.6°C 27.0°F-2.8°C 73% 2.0 mph NNW3.2 kmh NNW -- 30.46 in1031.5 mb 0.00 in0.0 mm 0.00 in0.0 mm 0.00 in0.0 mm
02:13 AM 34.7°F1.5°C 27.2°F-2.7°C 74% 3.0 mph N4.8 kmh N -- 30.46 in1031.5 mb 0.00 in0.0 mm 0.00 in0.0 mm 0.00 in0.0 mm
02:18 AM 34.5°F1.4°C 28.0°F-2.2°C 77% 5.0 mph NNE8.0 kmh NNE -- 30.46 in1031.5 mb 0.00 in0.0 mm 0.00 in0.0 mm 0.00 in0.0 mm
02:23 AM 34.4°F1.3°C 28.1°F-2.2°C 78% 3.0 mph N4.8 kmh N -- 30.45 in1031.2 mb 0.00 in0.0 mm 0.00 in0.0 mm 0.00 in0.0 mm
02:28 AM 34.2°F1.2°C 28.6°F-1.9°C 80% 3.0 mph NNW4.8 kmh NNW -- 30.45 in1031.2 mb 0.00 in0.0 mm 0.00 in0.0 mm 0.00 in0.0 mm
02:33 AM 34.0°F1.1°C 28.4°F-2.0°C 80% 3.0 mph NNW4.8 kmh NNW -- 30.45 in1031.2 mb 0.00 in0.0 mm 0.00 in0.0 mm 0.00 in0.0 mm
02:38 AM 33.9°F1.1°C 28.7°F-1.8°C 81% 3.0 mph NE4.8 kmh NE -- 30.44 in1030.8 mb 0.00 in0.0 mm 0.00 in0.0 mm 0.00 in0.0 mm
02:43 AM 33.8°F1.0°C 28.8°F-1.8°C 82% 4.0 mph NNE6.4 kmh NNE -- 30.43 in1030.5 mb 0.00 in0.0 mm 0.00 in0.0 mm 0.00 in0.0 mm
02:48 AM 33.6°F0.9°C 28.9°F-1.7°C 83% 4.0 mph N6.4 kmh N -- 30.43 in1030.5 mb 0.00 in0.0 mm 0.00 in0.0 mm 0.00 in0.0 mm
02:53 AM 33.6°F0.9°C 28.9°F-1.7°C 83% 4.0 mph N6.4 kmh N -- 30.42 in1030.1 mb 0.00 in0.0 mm 0.00 in0.0 mm 0.00 in0.0 mm
02:58 AM 33.6°F0.9°C 28.9°F-1.7°C 83% 3.0 mph NE4.8 kmh NE -- 30.42 in1030.1 mb 0.00 in0.0 mm 0.00 in0.0 mm 0.00 in0.0 mm
03:03 AM 33.6°F0.9°C 28.9°F-1.7°C 83% 6.0 mph NNE9.7 kmh NNE -- 30.43 in1030.5 mb 0.00 in0.0 mm 0.00 in0.0 mm 0.00 in0.0 mm
03:08 AM 33.5°F0.8°C 28.8°F-1.8°C 83% 6.0 mph N9.7 kmh N -- 30.42 in1030.1 mb 0.00 in0.0 mm 0.00 in0.0 mm 0.00 in0.0 mm
03:13 AM 33.5°F0.8°C 28.8°F-1.8°C 83% 4.0 mph NNE6.4 kmh NNE -- 30.42 in1030.1 mb 0.00 in0.0 mm 0.00 in0.0 mm 0.00 in0.0 mm
03:18 AM 33.5°F0.8°C 29.1°F-1.6°C 84% 7.0 mph NNE11.3 kmh NNE -- 30.42 in1030.1 mb 0.00 in0.0 mm 0.00 in0.0 mm 0.00 in0.0 mm
03:23 AM 33.3°F0.7°C 28.6°F-1.9°C 83% 3.0 mph NE4.8 kmh NE -- 30.41 in1029.8 mb 0.00 in0.0 mm 0.00 in0.0 mm 0.00 in0.0 mm
03:28 AM 33.2°F0.7°C 28.6°F-1.9°C 83% 7.0 mph N11.3 kmh N -- 30.41 in1029.8 mb 0.00 in0.0 mm 0.00 in0.0 mm 0.00 in0.0 mm
03:33 AM 33.1°F0.6°C 28.7°F-1.8°C 84% 5.0 mph NNE8.0 kmh NNE -- 30.40 in1029.5 mb 0.00 in0.0 mm 0.00 in0.0 mm 0.00 in0.0 mm
03:38 AM 33.0°F0.6°C 28.7°F-1.8°C 84% 4.0 mph NNE6.4 kmh NNE -- 30.40 in1029.5 mb 0.00 in0.0 mm 0.00 in0.0 mm 0.00 in0.0 mm
03:43 AM 33.0°F0.6°C 28.7°F-1.8°C 84% 4.0 mph NNE6.4 kmh NNE -- 30.40 in1029.5 mb 0.00 in0.0 mm 0.00 in0.0 mm 0.00 in0.0 mm
03:48 AM 33.0°F0.6°C 28.7°F-1.8°C 84% 5.0 mph NNE8.0 kmh NNE -- 30.41 in1029.8 mb 0.00 in0.0 mm 0.00 in0.0 mm 0.00 in0.0 mm
03:53 AM 33.0°F0.6°C 28.7°F-1.8°C 84% 3.0 mph NNE4.8 kmh NNE -- 30.40 in1029.5 mb 0.00 in0.0 mm 0.00 in0.0 mm 0.00 in0.0 mm
04:03 AM 33.0°F0.6°C 29.0°F-1.7°C 85% 3.0 mph NE4.8 kmh NE -- 30.40 in1029.5 mb 0.00 in0.0 mm 0.00 in0.0 mm 0.00 in0.0 mm
04:08 AM 32.8°F0.4°C 28.7°F-1.8°C 85% 3.0 mph NE4.8 kmh NE -- 30.40 in1029.5 mb 0.00 in0.0 mm 0.00 in0.0 mm 0.00 in0.0 mm
04:13 AM 32.8°F0.4°C 28.9°F-1.7°C 86% 3.0 mph E4.8 kmh E -- 30.39 in1029.1 mb 0.00 in0.0 mm 0.00 in0.0 mm 0.00 in0.0 mm
04:18 AM 32.7°F0.4°C 29.2°F-1.6°C 87% 3.0 mph N4.8 kmh N -- 30.38 in1028.8 mb 0.00 in0.0 mm 0.00 in0.0 mm 0.00 in0.0 mm
04:23 AM 32.5°F0.3°C 29.3°F-1.5°C 88% 3.0 mph NNE4.8 kmh NNE -- 30.38 in1028.8 mb 0.00 in0.0 mm 0.00 in0.0 mm 0.00 in0.0 mm
04:28 AM 32.5°F0.3°C 29.6°F-1.3°C 89% 3.0 mph NE4.8 kmh NE -- 30.38 in1028.8 mb 0.01 in0.3 mm 0.12 in3.0 mm 0.01 in0.3 mm
04:33 AM 32.4°F0.2°C 29.7°F-1.3°C 90% 3.0 mph NNW4.8 kmh NNW -- 30.37 in1028.4 mb 0.01 in0.3 mm 0.00 in0.0 mm 0.01 in0.3 mm
04:38 AM 32.4°F0.2°C 29.7°F-1.3°C 90% 3.0 mph NE4.8 kmh NE -- 30.37 in1028.4 mb 0.01 in0.3 mm 0.00 in0.0 mm 0.01 in0.3 mm
04:43 AM 32.6°F0.3°C 30.2°F-1.0°C 91% 3.0 mph ENE4.8 kmh ENE -- 30.37 in1028.4 mb 0.01 in0.3 mm 0.00 in0.0 mm 0.01 in0.3 mm
04:48 AM 32.5°F0.3°C 30.2°F-1.0°C 91% 2.0 mph NE3.2 kmh NE -- 30.37 in1028.4 mb 0.01 in0.3 mm 0.00 in0.0 mm 0.01 in0.3 mm
04:53 AM 32.5°F0.3°C 30.2°F-1.0°C 91% 3.0 mph NNE4.8 kmh NNE -- 30.37 in1028.4 mb 0.01 in0.3 mm 0.00 in0.0 mm 0.01 in0.3 mm
04:58 AM 32.5°F0.3°C 30.2°F-1.0°C 91% 2.0 mph E3.2 kmh E -- 30.37 in1028.4 mb 0.01 in0.3 mm 0.00 in0.0 mm 0.01 in0.3 mm
05:03 AM 32.6°F0.3°C 30.2°F-1.0°C 91% 5.0 mph NE8.0 kmh NE -- 30.36 in1028.1 mb 0.01 in0.3 mm 0.00 in0.0 mm 0.01 in0.3 mm
05:08 AM 32.4°F0.2°C 30.0°F-1.1°C 91% 3.0 mph NE4.8 kmh NE -- 30.35 in1027.8 mb 0.01 in0.3 mm 0.00 in0.0 mm 0.01 in0.3 mm
05:13 AM 32.4°F0.2°C 30.3°F-0.9°C 92% 3.0 mph N4.8 kmh N -- 30.36 in1028.1 mb 0.01 in0.3 mm 0.00 in0.0 mm 0.01 in0.3 mm
05:18 AM 32.4°F0.2°C 30.3°F-0.9°C 92% 7.0 mph N11.3 kmh N -- 30.37 in1028.4 mb 0.00 in0.0 mm 0.00 in0.0 mm 0.01 in0.3 mm
05:23 AM 32.2°F0.1°C 30.1°F-1.1°C 92% 6.0 mph N9.7 kmh N -- 30.38 in1028.8 mb 0.00 in0.0 mm 0.00 in0.0 mm 0.01 in0.3 mm
05:28 AM 32.2°F0.1°C 30.4°F-0.9°C 93% 7.0 mph NE11.3 kmh NE -- 30.38 in1028.8 mb 0.01 in0.3 mm 0.12 in3.0 mm 0.02 in0.5 mm
05:33 AM 32.2°F0.1°C 30.6°F-0.8°C 94% 4.0 mph NNE6.4 kmh NNE -- 30.38 in1028.8 mb 0.01 in0.3 mm 0.00 in0.0 mm 0.02 in0.5 mm
05:38 AM 32.1°F0.1°C 30.6°F-0.8°C 94% 4.0 mph NE6.4 kmh NE -- 30.37 in1028.4 mb 0.01 in0.3 mm 0.00 in0.0 mm 0.02 in0.5 mm
05:43 AM 32.3°F0.2°C 30.8°F-0.7°C 94% 3.0 mph SE4.8 kmh SE -- 30.37 in1028.4 mb 0.02 in0.5 mm 0.12 in3.0 mm 0.03 in0.8 mm
05:48 AM 32.3°F0.2°C 30.8°F-0.7°C 94% 2.0 mph NNE3.2 kmh NNE -- 30.36 in1028.1 mb 0.03 in0.8 mm 0.12 in3.0 mm 0.04 in1.0 mm
05:53 AM 32.3°F0.2°C 30.8°F-0.7°C 94% 3.0 mph NE4.8 kmh NE -- 30.37 in1028.4 mb 0.03 in0.8 mm 0.00 in0.0 mm 0.04 in1.0 mm
05:58 AM 32.4°F0.2°C 31.1°F-0.5°C 95% 8.0 mph E12.9 kmh E -- 30.36 in1028.1 mb 0.05 in1.3 mm 0.24 in6.1 mm 0.06 in1.5 mm
06:03 AM 32.5°F0.3°C 31.0°F-0.6°C 94% 6.0 mph E9.7 kmh E -- 30.33 in1027.1 mb 0.06 in1.5 mm 0.01 in0.3 mm 0.07 in1.8 mm
06:08 AM 32.4°F0.2°C 31.1°F-0.5°C 95% 3.0 mph E4.8 kmh E -- 30.34 in1027.4 mb 0.07 in1.8 mm 0.12 in3.0 mm 0.08 in2.0 mm
06:13 AM 32.5°F0.3°C 31.2°F-0.4°C 95% 7.0 mph NE11.3 kmh NE -- 30.34 in1027.4 mb 0.08 in2.0 mm 0.12 in3.0 mm 0.09 in2.3 mm
06:18 AM 32.5°F0.3°C 31.2°F-0.4°C 95% 2.0 mph ENE3.2 kmh ENE -- 30.34 in1027.4 mb 0.08 in2.0 mm 0.00 in0.0 mm 0.10 in2.5 mm
06:23 AM 32.6°F0.3°C 31.2°F-0.4°C 95% 2.0 mph SSE3.2 kmh SSE -- 30.35 in1027.8 mb 0.08 in2.0 mm 0.00 in0.0 mm 0.10 in2.5 mm
06:28 AM 32.6°F0.3°C 31.2°F-0.4°C 95% 4.0 mph NNE6.4 kmh NNE -- 30.35 in1027.8 mb 0.09 in2.3 mm 0.12 in3.0 mm 0.11 in2.8 mm
06:33 AM 32.5°F0.3°C 31.2°F-0.4°C 95% 3.0 mph NE4.8 kmh NE -- 30.35 in1027.8 mb 0.10 in2.5 mm 0.12 in3.0 mm 0.12 in3.0 mm
06:38 AM 32.6°F0.3°C 31.2°F-0.4°C 95% 4.0 mph N6.4 kmh N -- 30.35 in1027.8 mb 0.08 in2.0 mm 0.00 in0.0 mm 0.12 in3.0 mm
06:43 AM 32.8°F0.4°C 31.4°F-0.3°C 95% 3.0 mph NE4.8 kmh NE -- 30.36 in1028.1 mb 0.08 in2.0 mm 0.00 in0.0 mm 0.12 in3.0 mm
06:48 AM 32.7°F0.4°C 31.4°F-0.3°C 95% 3.0 mph N4.8 kmh N -- 30.37 in1028.4 mb 0.07 in1.8 mm 0.00 in0.0 mm 0.13 in3.3 mm
06:53 AM 32.8°F0.4°C 31.4°F-0.3°C 95% 2.0 mph E3.2 kmh E -- 30.36 in1028.1 mb 0.08 in2.0 mm 0.12 in3.0 mm 0.14 in3.6 mm
06:58 AM 32.7°F0.4°C 31.4°F-0.3°C 95% 4.0 mph N6.4 kmh N -- 30.36 in1028.1 mb 0.06 in1.5 mm 0.00 in0.0 mm 0.14 in3.6 mm
07:03 AM 32.8°F0.4°C 31.4°F-0.3°C 95% 3.0 mph NE4.8 kmh NE -- 30.36 in1028.1 mb 0.07 in1.8 mm 0.01 in0.3 mm 0.15 in3.8 mm
07:08 AM 32.7°F0.4°C 31.7°F-0.2°C 96% 5.0 mph N8.0 kmh N -- 30.35 in1027.8 mb 0.05 in1.3 mm 0.00 in0.0 mm 0.15 in3.8 mm
07:13 AM 32.8°F0.4°C 31.7°F-0.2°C 96% 4.0 mph NNE6.4 kmh NNE -- 30.35 in1027.8 mb 0.06 in1.5 mm 0.12 in3.0 mm 0.16 in4.1 mm
07:18 AM 32.7°F0.4°C 31.7°F-0.2°C 96% 3.0 mph NE4.8 kmh NE -- 30.36 in1028.1 mb 0.05 in1.3 mm 0.00 in0.0 mm 0.16 in4.1 mm
07:23 AM 32.8°F0.4°C 31.7°F-0.2°C 96% 3.0 mph NE4.8 kmh NE -- 30.35 in1027.8 mb 0.06 in1.5 mm 0.12 in3.0 mm 0.17 in4.3 mm
07:28 AM 32.8°F0.4°C 31.7°F-0.2°C 96% 3.0 mph NE4.8 kmh NE -- 30.35 in1027.8 mb 0.06 in1.5 mm 0.00 in0.0 mm 0.18 in4.6 mm
07:33 AM 32.7°F0.4°C 31.7°F-0.2°C 96% 5.0 mph NNE8.0 kmh NNE -- 30.35 in1027.8 mb 0.07 in1.8 mm 0.12 in3.0 mm 0.19 in4.8 mm
07:38 AM 32.7°F0.4°C 31.7°F-0.2°C 96% 4.0 mph NNE6.4 kmh NNE -- 30.35 in1027.8 mb 0.07 in1.8 mm 0.00 in0.0 mm 0.20 in5.1 mm
07:43 AM 32.8°F0.4°C 31.7°F-0.2°C 96% 2.0 mph N3.2 kmh N -- 30.35 in1027.8 mb 0.08 in2.0 mm 0.12 in3.0 mm 0.21 in5.3 mm
07:48 AM 32.8°F0.4°C 31.7°F-0.2°C 96% 3.0 mph ENE4.8 kmh ENE -- 30.35 in1027.8 mb 0.07 in1.8 mm 0.00 in0.0 mm 0.21 in5.3 mm
07:53 AM 32.8°F0.4°C 31.7°F-0.2°C 96% 2.0 mph NE3.2 kmh NE -- 30.34 in1027.4 mb 0.08 in2.0 mm 0.12 in3.0 mm 0.22 in5.6 mm
07:58 AM 32.8°F0.4°C 31.7°F-0.2°C 96% 3.0 mph E4.8 kmh E -- 30.34 in1027.4 mb 0.08 in2.0 mm 0.00 in0.0 mm 0.23 in5.8 mm
08:03 AM 32.7°F0.4°C 31.7°F-0.2°C 96% 2.0 mph NE3.2 kmh NE -- 30.33 in1027.1 mb 0.08 in2.0 mm 0.00 in0.0 mm 0.23 in5.8 mm
08:08 AM 32.8°F0.4°C 31.7°F-0.2°C 96% 2.0 mph ENE3.2 kmh ENE -- 30.33 in1027.1 mb 0.08 in2.0 mm 0.00 in0.0 mm 0.24 in6.1 mm
08:13 AM 32.8°F0.4°C 31.7°F-0.2°C 96% 2.0 mph ENE3.2 kmh ENE -- 30.33 in1027.1 mb 0.09 in2.3 mm 0.12 in3.0 mm 0.25 in6.4 mm
08:18 AM 32.8°F0.4°C 31.7°F-0.2°C 96% 2.0 mph ESE3.2 kmh ESE -- 30.33 in1027.1 mb 0.08 in2.0 mm 0.00 in0.0 mm 0.26 in6.6 mm
08:23 AM 32.8°F0.4°C 31.7°F-0.2°C 96% 3.0 mph NE4.8 kmh NE -- 30.33 in1027.1 mb 0.08 in2.0 mm 0.00 in0.0 mm 0.26 in6.6 mm
08:28 AM 32.7°F0.4°C 31.7°F-0.2°C 96% 3.0 mph NE4.8 kmh NE -- 30.32 in1026.8 mb 0.07 in1.8 mm 0.00 in0.0 mm 0.27 in6.9 mm
08:33 AM 32.8°F0.4°C 31.7°F-0.2°C 96% 4.0 mph ENE6.4 kmh ENE -- 30.32 in1026.8 mb 0.08 in2.0 mm 0.12 in3.0 mm 0.28 in7.1 mm
08:38 AM 32.8°F0.4°C 31.7°F-0.2°C 96% 1.0 mph ESE1.6 kmh ESE -- 30.32 in1026.8 mb 0.07 in1.8 mm 0.00 in0.0 mm 0.28 in7.1 mm
08:43 AM 32.9°F0.5°C 31.9°F-0.1°C 96% 3.0 mph N4.8 kmh N -- 30.33 in1027.1 mb 0.08 in2.0 mm 0.12 in3.0 mm 0.29 in7.4 mm
08:48 AM 32.9°F0.5°C 31.9°F-0.1°C 96% 5.0 mph NNE8.0 kmh NNE -- 30.33 in1027.1 mb 0.09 in2.3 mm 0.12 in3.0 mm 0.31 in7.9 mm
08:53 AM 32.8°F0.4°C 31.7°F-0.2°C 96% 4.0 mph NE6.4 kmh NE -- 30.32 in1026.8 mb 0.10 in2.5 mm 0.12 in3.0 mm 0.32 in8.1 mm
08:58 AM 32.9°F0.5°C 31.9°F-0.1°C 96% 4.0 mph ENE6.4 kmh ENE -- 30.32 in1026.8 mb 0.09 in2.3 mm 0.00 in0.0 mm 0.33 in8.4 mm
09:03 AM 33.2°F0.7°C 32.2°F0.1°C 96% 1.0 mph S1.6 kmh S -- 30.32 in1026.8 mb 0.09 in2.3 mm 0.00 in0.0 mm 0.33 in8.4 mm
09:08 AM 33.1°F0.6°C 32.0°F0.0°C 96% 2.0 mph NE3.2 kmh NE -- 30.32 in1026.8 mb 0.09 in2.3 mm 0.00 in0.0 mm 0.34 in8.6 mm
09:13 AM 33.1°F0.6°C 32.0°F0.0°C 96% 2.0 mph NNE3.2 kmh NNE -- 30.32 in1026.8 mb 0.09 in2.3 mm 0.00 in0.0 mm 0.34 in8.6 mm
09:18 AM 33.1°F0.6°C 32.0°F0.0°C 96% 3.0 mph NE4.8 kmh NE -- 30.32 in1026.8 mb 0.07 in1.8 mm 0.00 in0.0 mm 0.34 in8.6 mm
09:23 AM 33.2°F0.7°C 32.2°F0.1°C 96% 3.0 mph NE4.8 kmh NE -- 30.32 in1026.8 mb 0.08 in2.0 mm 0.12 in3.0 mm 0.35 in8.9 mm
09:28 AM 33.1°F0.6°C 32.3°F0.2°C 97% 3.0 mph NE4.8 kmh NE -- 30.31 in1026.4 mb 0.08 in2.0 mm 0.00 in0.0 mm 0.36 in9.1 mm
09:33 AM 33.2°F0.7°C 32.5°F0.3°C 97% 2.0 mph NE3.2 kmh NE -- 30.31 in1026.4 mb 0.08 in2.0 mm 0.00 in0.0 mm 0.36 in9.1 mm
09:38 AM 33.2°F0.7°C 32.5°F0.3°C 97% 3.0 mph NE4.8 kmh NE -- 30.31 in1026.4 mb 0.06 in1.5 mm 0.00 in0.0 mm 0.37 in9.4 mm
09:43 AM 33.2°F0.7°C 32.5°F0.3°C 97% 2.0 mph NNE3.2 kmh NNE -- 30.31 in1026.4 mb 0.07 in1.8 mm 0.12 in3.0 mm 0.38 in9.7 mm
09:48 AM 33.2°F0.7°C 32.5°F0.3°C 97% 2.0 mph ENE3.2 kmh ENE -- 30.31 in1026.4 mb 0.06 in1.5 mm 0.00 in0.0 mm 0.39 in9.9 mm
09:53 AM 33.2°F0.7°C 32.5°F0.3°C 97% 2.0 mph NE3.2 kmh NE -- 30.31 in1026.4 mb 0.07 in1.8 mm 0.12 in3.0 mm 0.40 in10.2 mm
09:58 AM 33.4°F0.8°C 32.7°F0.4°C 97% 4.0 mph ESE6.4 kmh ESE -- 30.30 in1026.1 mb 0.09 in2.3 mm 0.24 in6.1 mm 0.42 in10.7 mm
10:03 AM 33.4°F0.8°C 32.7°F0.4°C 97% 3.0 mph N4.8 kmh N -- 30.30 in1026.1 mb 0.10 in2.5 mm 0.01 in0.3 mm 0.43 in10.9 mm
10:08 AM 33.3°F0.7°C 32.5°F0.3°C 97% 3.0 mph NE4.8 kmh NE -- 30.29 in1025.7 mb 0.10 in2.5 mm 0.00 in0.0 mm 0.44 in11.2 mm
10:13 AM 33.5°F0.8°C 32.7°F0.4°C 97% 3.0 mph NE4.8 kmh NE -- 30.29 in1025.7 mb 0.10 in2.5 mm 0.00 in0.0 mm 0.44 in11.2 mm
10:18 AM 33.5°F0.8°C 32.7°F0.4°C 97% 3.0 mph E4.8 kmh E -- 30.29 in1025.7 mb 0.08 in2.0 mm 0.00 in0.0 mm 0.44 in11.2 mm
10:23 AM 33.7°F0.9°C 32.8°F0.4°C 97% 2.0 mph N3.2 kmh N -- 30.29 in1025.7 mb 0.08 in2.0 mm 0.00 in0.0 mm 0.44 in11.2 mm
10:28 AM 33.7°F0.9°C 32.8°F0.4°C 97% 3.0 mph NE4.8 kmh NE -- 30.29 in1025.7 mb 0.07 in1.8 mm 0.00 in0.0 mm 0.44 in11.2 mm
10:33 AM 33.7°F0.9°C 32.8°F0.4°C 97% 4.0 mph NNE6.4 kmh NNE -- 30.28 in1025.4 mb 0.07 in1.8 mm 0.00 in0.0 mm 0.44 in11.2 mm
10:38 AM 33.8°F1.0°C 33.0°F0.6°C 97% 5.0 mph NW8.0 kmh NW -- 30.28 in1025.4 mb 0.06 in1.5 mm 0.00 in0.0 mm 0.45 in11.4 mm
10:43 AM 33.8°F1.0°C 33.0°F0.6°C 97% 4.0 mph NNE6.4 kmh NNE -- 30.28 in1025.4 mb 0.06 in1.5 mm 0.00 in0.0 mm 0.45 in11.4 mm
10:48 AM 33.9°F1.1°C 33.2°F0.7°C 97% 4.0 mph N6.4 kmh N -- 30.28 in1025.4 mb 0.04 in1.0 mm 0.00 in0.0 mm 0.45 in11.4 mm
10:53 AM 34.1°F1.2°C 33.4°F0.8°C 97% 2.0 mph NE3.2 kmh NE -- 30.28 in1025.4 mb 0.05 in1.3 mm 0.12 in3.0 mm 0.46 in11.7 mm
10:58 AM 34.1°F1.2°C 33.4°F0.8°C 97% 3.0 mph 4.8 kmh -- 30.28 in1025.4 mb 0.02 in0.5 mm 0.00 in0.0 mm 0.46 in11.7 mm
11:03 AM 34.1°F1.2°C 33.4°F0.8°C 97% 3.0 mph NNE4.8 kmh NNE -- 30.27 in1025.1 mb 0.02 in0.5 mm 0.00 in0.0 mm 0.46 in11.7 mm
11:08 AM 34.0°F1.1°C 33.2°F0.7°C 97% 3.0 mph NE4.8 kmh NE -- 30.27 in1025.1 mb 0.02 in0.5 mm 0.00 in0.0 mm 0.46 in11.7 mm
11:13 AM 34.1°F1.2°C 33.4°F0.8°C 97% 3.0 mph N4.8 kmh N -- 30.27 in1025.1 mb 0.02 in0.5 mm 0.00 in0.0 mm 0.46 in11.7 mm
11:18 AM 34.2°F1.2°C 33.4°F0.8°C 97% 7.0 mph NNW11.3 kmh NNW -- 30.26 in1024.7 mb 0.02 in0.5 mm 0.00 in0.0 mm 0.46 in11.7 mm
11:23 AM 34.2°F1.2°C 33.4°F0.8°C 97% 4.0 mph N6.4 kmh N -- 30.26 in1024.7 mb 0.02 in0.5 mm 0.00 in0.0 mm 0.46 in11.7 mm
11:28 AM 34.1°F1.2°C 33.4°F0.8°C 97% 5.0 mph NNE8.0 kmh NNE -- 30.26 in1024.7 mb 0.01 in0.3 mm 0.00 in0.0 mm 0.46 in11.7 mm
11:33 AM 33.9°F1.1°C 33.2°F0.7°C 97% 5.0 mph NE8.0 kmh NE -- 30.25 in1024.4 mb 0.01 in0.3 mm 0.00 in0.0 mm 0.46 in11.7 mm
11:38 AM 34.1°F1.2°C 33.4°F0.8°C 97% 3.0 mph N4.8 kmh N -- 30.24 in1024.0 mb 0.01 in0.3 mm 0.00 in0.0 mm 0.46 in11.7 mm
11:43 AM 34.2°F1.2°C 33.4°F0.8°C 97% 2.0 mph N3.2 kmh N -- 30.24 in1024.0 mb 0.01 in0.3 mm 0.00 in0.0 mm 0.46 in11.7 mm
11:48 AM 34.2°F1.2°C 33.4°F0.8°C 97% 3.0 mph NNW4.8 kmh NNW -- 30.23 in1023.7 mb 0.00 in0.0 mm 0.00 in0.0 mm 0.46 in11.7 mm
11:53 AM 34.3°F1.3°C 33.6°F0.9°C 97% 5.0 mph NE8.0 kmh NE -- 30.23 in1023.7 mb 0.00 in0.0 mm 0.00 in0.0 mm 0.46 in11.7 mm
11:58 AM 34.4°F1.3°C 33.6°F0.9°C 97% 6.0 mph N9.7 kmh N -- 30.22 in1023.4 mb 0.00 in0.0 mm 0.00 in0.0 mm 0.46 in11.7 mm
12:03 PM 34.5°F1.4°C 34.0°F1.1°C 98% 4.0 mph NNE6.4 kmh NNE -- 30.21 in1023.0 mb 0.00 in0.0 mm 0.00 in0.0 mm 0.46 in11.7 mm
12:08 PM 34.5°F1.4°C 33.7°F0.9°C 97% 3.0 mph NE4.8 kmh NE -- 30.20 in1022.7 mb 0.00 in0.0 mm 0.00 in0.0 mm 0.46 in11.7 mm
12:13 PM 34.7°F1.5°C 34.2°F1.2°C 98% 4.0 mph N6.4 kmh N -- 30.20 in1022.7 mb 0.01 in0.3 mm 0.12 in3.0 mm 0.47 in11.9 mm
12:18 PM 34.6°F1.4°C 33.7°F0.9°C 97% 3.0 mph N4.8 kmh N -- 30.20 in1022.7 mb 0.01 in0.3 mm 0.00 in0.0 mm 0.47 in11.9 mm
12:23 PM 34.6°F1.4°C 33.7°F0.9°C 97% 4.0 mph NE6.4 kmh NE -- 30.20 in1022.7 mb 0.01 in0.3 mm 0.00 in0.0 mm 0.47 in11.9 mm
12:28 PM 34.7°F1.5°C 34.2°F1.2°C 98% 2.0 mph NE3.2 kmh NE -- 30.19 in1022.4 mb 0.01 in0.3 mm 0.00 in0.0 mm 0.47 in11.9 mm
12:33 PM 34.8°F1.6°C 34.4°F1.3°C 98% 2.0 mph NNE3.2 kmh NNE -- 30.19 in1022.4 mb 0.01 in0.3 mm 0.00 in0.0 mm 0.47 in11.9 mm
12:38 PM 34.9°F1.6°C 34.4°F1.3°C 98% 2.0 mph ENE3.2 kmh ENE -- 30.18 in1022.0 mb 0.01 in0.3 mm 0.00 in0.0 mm 0.47 in11.9 mm
12:43 PM 35.0°F1.7°C 34.5°F1.4°C 98% 2.0 mph E3.2 kmh E -- 30.18 in1022.0 mb 0.02 in0.5 mm 0.12 in3.0 mm 0.48 in12.2 mm
12:48 PM 35.1°F1.7°C 34.5°F1.4°C 98% Calm Calm -- 30.17 in1021.7 mb 0.02 in0.5 mm 0.00 in0.0 mm 0.48 in12.2 mm
12:53 PM 35.1°F1.7°C 34.5°F1.4°C 98% 2.0 mph ENE3.2 kmh ENE -- 30.17 in1021.7 mb 0.02 in0.5 mm 0.00 in0.0 mm 0.48 in12.2 mm
12:58 PM 35.2°F1.8°C 34.7°F1.5°C 98% 3.0 mph NE4.8 kmh NE -- 30.16 in1021.3 mb 0.02 in0.5 mm 0.00 in0.0 mm 0.48 in12.2 mm
01:03 PM 35.3°F1.8°C 34.7°F1.5°C 98% 1.0 mph SE1.6 kmh SE -- 30.16 in1021.3 mb 0.02 in0.5 mm 0.00 in0.0 mm 0.48 in12.2 mm
01:08 PM 35.4°F1.9°C 34.9°F1.6°C 98% 2.0 mph ENE3.2 kmh ENE -- 30.15 in1021.0 mb 0.01 in0.3 mm 0.00 in0.0 mm 0.48 in12.2 mm
01:13 PM 35.5°F1.9°C 34.9°F1.6°C 98% 1.0 mph E1.6 kmh E -- 30.15 in1021.0 mb 0.02 in0.5 mm 0.12 in3.0 mm 0.49 in12.4 mm
01:18 PM 35.5°F1.9°C 34.9°F1.6°C 98% 1.0 mph SE1.6 kmh SE -- 30.14 in1020.7 mb 0.02 in0.5 mm 0.00 in0.0 mm 0.49 in12.4 mm
01:23 PM 35.6°F2.0°C 35.1°F1.7°C 98% 2.0 mph ENE3.2 kmh ENE -- 30.13 in1020.3 mb 0.03 in0.8 mm 0.12 in3.0 mm 0.50 in12.7 mm
01:28 PM 35.6°F2.0°C 35.1°F1.7°C 98% 3.0 mph NW4.8 kmh NW -- 30.13 in1020.3 mb 0.03 in0.8 mm 0.00 in0.0 mm 0.50 in12.7 mm
01:33 PM 35.6°F2.0°C 35.1°F1.7°C 98% 2.0 mph ENE3.2 kmh ENE -- 30.14 in1020.7 mb 0.03 in0.8 mm 0.00 in0.0 mm 0.50 in12.7 mm
01:38 PM 35.6°F2.0°C 35.1°F1.7°C 98% 2.0 mph NNW3.2 kmh NNW -- 30.12 in1020.0 mb 0.03 in0.8 mm 0.00 in0.0 mm 0.51 in13.0 mm
01:43 PM 35.4°F1.9°C 34.9°F1.6°C 98% 5.0 mph NE8.0 kmh NE -- 30.12 in1020.0 mb 0.04 in1.0 mm 0.12 in3.0 mm 0.52 in13.2 mm
01:48 PM 35.3°F1.8°C 34.7°F1.5°C 98% 6.0 mph N9.7 kmh N -- 30.11 in1019.6 mb 0.04 in1.0 mm 0.00 in0.0 mm 0.52 in13.2 mm
01:53 PM 35.3°F1.8°C 34.7°F1.5°C 98% 3.0 mph N4.8 kmh N -- 30.12 in1020.0 mb 0.05 in1.3 mm 0.12 in3.0 mm 0.53 in13.5 mm
01:58 PM 35.3°F1.8°C 34.7°F1.5°C 98% 3.0 mph N4.8 kmh N -- 30.12 in1020.0 mb 0.05 in1.3 mm 0.00 in0.0 mm 0.53 in13.5 mm
02:03 PM 35.0°F1.7°C 34.5°F1.4°C 98% 3.0 mph NNW4.8 kmh NNW -- 30.11 in1019.6 mb 0.06 in1.5 mm 0.01 in0.3 mm 0.54 in13.7 mm
02:08 PM 34.9°F1.6°C 34.4°F1.3°C 98% 4.0 mph N6.4 kmh N -- 30.10 in1019.3 mb 0.06 in1.5 mm 0.00 in0.0 mm 0.55 in14.0 mm
02:13 PM 35.1°F1.7°C 34.5°F1.4°C 98% 1.0 mph SE1.6 kmh SE -- 30.09 in1019.0 mb 0.06 in1.5 mm 0.00 in0.0 mm 0.55 in14.0 mm
02:18 PM 35.2°F1.8°C 34.7°F1.5°C 98% 3.0 mph N4.8 kmh N -- 30.10 in1019.3 mb 0.05 in1.3 mm 0.00 in0.0 mm 0.55 in14.0 mm
02:23 PM 35.3°F1.8°C 34.7°F1.5°C 98% 2.0 mph NNE3.2 kmh NNE -- 30.10 in1019.3 mb 0.05 in1.3 mm 0.00 in0.0 mm 0.55 in14.0 mm
02:28 PM 35.4°F1.9°C 34.9°F1.6°C 98% 2.0 mph NNE3.2 kmh NNE -- 30.10 in1019.3 mb 0.05 in1.3 mm 0.00 in0.0 mm 0.56 in14.2 mm
02:33 PM 35.5°F1.9°C 34.9°F1.6°C 98% 3.0 mph E4.8 kmh E -- 30.10 in1019.3 mb 0.05 in1.3 mm 0.00 in0.0 mm 0.56 in14.2 mm
02:38 PM 35.5°F1.9°C 34.9°F1.6°C 98% 3.0 mph N4.8 kmh N -- 30.08 in1018.6 mb 0.05 in1.3 mm 0.00 in0.0 mm 0.57 in14.5 mm
02:43 PM 35.6°F2.0°C 35.1°F1.7°C 98% 3.0 mph ENE4.8 kmh ENE -- 30.08 in1018.6 mb 0.05 in1.3 mm 0.00 in0.0 mm 0.57 in14.5 mm
02:48 PM 35.5°F1.9°C 34.9°F1.6°C 98% 2.0 mph NE3.2 kmh NE -- 30.08 in1018.6 mb 0.04 in1.0 mm 0.00 in0.0 mm 0.57 in14.5 mm
02:53 PM 35.7°F2.1°C 35.3°F1.8°C 98% 5.0 mph N8.0 kmh N -- 30.09 in1019.0 mb 0.05 in1.3 mm 0.12 in3.0 mm 0.58 in14.7 mm
02:58 PM 35.6°F2.0°C 35.1°F1.7°C 98% 2.0 mph ENE3.2 kmh ENE -- 30.08 in1018.6 mb 0.04 in1.0 mm 0.00 in0.0 mm 0.58 in14.7 mm
03:03 PM 35.7°F2.1°C 35.3°F1.8°C 98% 3.0 mph ENE4.8 kmh ENE -- 30.08 in1018.6 mb 0.05 in1.3 mm 0.01 in0.3 mm 0.59 in15.0 mm
03:08 PM 35.8°F2.1°C 35.3°F1.8°C 98% 2.0 mph ENE3.2 kmh ENE -- 30.08 in1018.6 mb 0.05 in1.3 mm 0.00 in0.0 mm 0.60 in15.2 mm
03:13 PM 35.9°F2.2°C 35.4°F1.9°C 98% 1.0 mph E1.6 kmh E -- 30.08 in1018.6 mb 0.06 in1.5 mm 0.12 in3.0 mm 0.61 in15.5 mm
03:18 PM 35.9°F2.2°C 35.4°F1.9°C 98% 2.0 mph ENE3.2 kmh ENE -- 30.08 in1018.6 mb 0.06 in1.5 mm 0.00 in0.0 mm 0.62 in15.7 mm
03:23 PM 36.0°F2.2°C 35.4°F1.9°C 98% 3.0 mph N4.8 kmh N -- 30.07 in1018.3 mb 0.07 in1.8 mm 0.12 in3.0 mm 0.63 in16.0 mm
03:28 PM 36.0°F2.2°C 35.4°F1.9°C 98% 6.0 mph NNE9.7 kmh NNE -- 30.08 in1018.6 mb 0.08 in2.0 mm 0.12 in3.0 mm 0.64 in16.3 mm
03:33 PM 35.9°F2.2°C 35.4°F1.9°C 98% 6.0 mph N9.7 kmh N -- 30.07 in1018.3 mb 0.09 in2.3 mm 0.12 in3.0 mm 0.65 in16.5 mm
03:38 PM 35.9°F2.2°C 35.4°F1.9°C 98% 3.0 mph NE4.8 kmh NE -- 30.07 in1018.3 mb 0.09 in2.3 mm 0.00 in0.0 mm 0.66 in16.8 mm
03:43 PM 35.9°F2.2°C 35.4°F1.9°C 98% 2.0 mph NE3.2 kmh NE -- 30.07 in1018.3 mb 0.11 in2.8 mm 0.24 in6.1 mm 0.68 in17.3 mm
03:48 PM 35.9°F2.2°C 35.4°F1.9°C 98% 2.0 mph E3.2 kmh E -- 30.06 in1017.9 mb 0.11 in2.8 mm 0.00 in0.0 mm 0.69 in17.5 mm
03:53 PM 36.0°F2.2°C 35.4°F1.9°C 98% 3.0 mph NE4.8 kmh NE -- 30.06 in1017.9 mb 0.12 in3.0 mm 0.12 in3.0 mm 0.70 in17.8 mm
03:58 PM 36.0°F2.2°C 35.4°F1.9°C 98% 4.0 mph N6.4 kmh N -- 30.06 in1017.9 mb 0.11 in2.8 mm 0.00 in0.0 mm 0.71 in18.0 mm
04:03 PM 36.0°F2.2°C 35.4°F1.9°C 98% 3.0 mph NE4.8 kmh NE -- 30.06 in1017.9 mb 0.13 in3.3 mm 0.02 in0.5 mm 0.73 in18.5 mm
04:08 PM 36.1°F2.3°C 35.6°F2.0°C 98% 6.0 mph NNE9.7 kmh NNE -- 30.05 in1017.6 mb 0.13 in3.3 mm 0.00 in0.0 mm 0.74 in18.8 mm
04:13 PM 36.2°F2.3°C 35.6°F2.0°C 98% 4.0 mph NE6.4 kmh NE -- 30.05 in1017.6 mb 0.14 in3.6 mm 0.12 in3.0 mm 0.75 in19.1 mm
04:18 PM 36.2°F2.3°C 35.6°F2.0°C 98% 3.0 mph NNW4.8 kmh NNW -- 30.04 in1017.3 mb 0.12 in3.0 mm 0.00 in0.0 mm 0.76 in19.3 mm
04:23 PM 36.2°F2.3°C 35.6°F2.0°C 98% 4.0 mph NE6.4 kmh NE -- 30.04 in1017.3 mb 0.12 in3.0 mm 0.00 in0.0 mm 0.76 in19.3 mm
04:31 PM 36.3°F2.4°C 35.8°F2.1°C 98% 4.0 mph NNE6.4 kmh NNE -- 30.03 in1016.9 mb 0.11 in2.8 mm 0.00 in0.0 mm 0.77 in19.6 mm
04:33 PM 36.3°F2.4°C 35.8°F2.1°C 98% 7.0 mph NNE11.3 kmh NNE -- 30.03 in1016.9 mb 0.12 in3.0 mm 0.30 in7.6 mm 0.78 in19.8 mm
04:38 PM 36.4°F2.4°C 35.8°F2.1°C 98% 3.0 mph NE4.8 kmh NE -- 30.02 in1016.6 mb 0.09 in2.3 mm 0.00 in0.0 mm 0.78 in19.8 mm
04:43 PM 36.5°F2.5°C 36.0°F2.2°C 98% 3.0 mph NE4.8 kmh NE -- 30.02 in1016.6 mb 0.09 in2.3 mm 0.00 in0.0 mm 0.78 in19.8 mm
04:48 PM 36.6°F2.6°C 36.2°F2.3°C 98% 3.0 mph NE4.8 kmh NE -- 30.01 in1016.3 mb 0.08 in2.0 mm 0.00 in0.0 mm 0.79 in20.1 mm
04:53 PM 36.5°F2.5°C 36.0°F2.2°C 98% 1.0 mph ESE1.6 kmh ESE -- 30.00 in1015.9 mb 0.08 in2.0 mm 0.00 in0.0 mm 0.79 in20.1 mm
04:58 PM 36.7°F2.6°C 36.4°F2.4°C 99% 2.0 mph ESE3.2 kmh ESE -- 30.00 in1015.9 mb 0.05 in1.3 mm 0.00 in0.0 mm 0.79 in20.1 mm
05:03 PM 36.8°F2.7°C 36.3°F2.4°C 98% 2.0 mph SE3.2 kmh SE -- 30.01 in1016.3 mb 0.06 in1.5 mm 0.01 in0.3 mm 0.80 in20.3 mm
05:08 PM 37.0°F2.8°C 36.8°F2.7°C 99% Calm Calm -- 30.02 in1016.6 mb 0.05 in1.3 mm 0.00 in0.0 mm 0.80 in20.3 mm
05:13 PM 37.1°F2.8°C 36.8°F2.7°C 99% 2.0 mph ENE3.2 kmh ENE -- 30.04 in1017.3 mb 0.06 in1.5 mm 0.12 in3.0 mm 0.81 in20.6 mm
05:18 PM 37.2°F2.9°C 37.0°F2.8°C 99% 1.0 mph NE1.6 kmh NE -- 30.03 in1016.9 mb 0.06 in1.5 mm 0.00 in0.0 mm 0.82 in20.8 mm
05:23 PM 37.2°F2.9°C 37.0°F2.8°C 99% 2.0 mph ENE3.2 kmh ENE -- 30.03 in1016.9 mb 0.06 in1.5 mm 0.00 in0.0 mm 0.82 in20.8 mm
05:28 PM 37.2°F2.9°C 37.0°F2.8°C 99% 1.0 mph NNW1.6 kmh NNW -- 30.03 in1016.9 mb 0.05 in1.3 mm 0.00 in0.0 mm 0.83 in21.1 mm
05:33 PM 37.3°F2.9°C 37.0°F2.8°C 99% 4.0 mph NNE6.4 kmh NNE -- 30.03 in1016.9 mb 0.06 in1.5 mm 0.12 in3.0 mm 0.84 in21.3 mm
05:38 PM 37.3°F2.9°C 37.0°F2.8°C 99% 3.0 mph NE4.8 kmh NE -- 30.02 in1016.6 mb 0.05 in1.3 mm 0.00 in0.0 mm 0.84 in21.3 mm
05:43 PM 37.3°F2.9°C 37.0°F2.8°C 99% 2.0 mph NE3.2 kmh NE -- 30.01 in1016.3 mb 0.06 in1.5 mm 0.12 in3.0 mm 0.85 in21.6 mm
05:48 PM 37.5°F3.1°C 37.3°F2.9°C 99% 3.0 mph NNE4.8 kmh NNE -- 30.02 in1016.6 mb 0.06 in1.5 mm 0.00 in0.0 mm 0.85 in21.6 mm
05:53 PM 37.5°F3.1°C 37.3°F2.9°C 99% 3.0 mph N4.8 kmh N -- 30.01 in1016.3 mb 0.07 in1.8 mm 0.12 in3.0 mm 0.86 in21.8 mm
05:58 PM 37.5°F3.1°C 37.3°F2.9°C 99% 4.0 mph N6.4 kmh N -- 30.01 in1016.3 mb 0.06 in1.5 mm 0.00 in0.0 mm 0.86 in21.8 mm
06:03 PM 37.4°F3.0°C 37.1°F2.8°C 99% 3.0 mph NE4.8 kmh NE -- 30.01 in1016.3 mb 0.06 in1.5 mm 0.00 in0.0 mm 0.86 in21.8 mm
06:08 PM 37.5°F3.1°C 37.3°F2.9°C 99% 6.0 mph NE9.7 kmh NE -- 30.00 in1015.9 mb 0.05 in1.3 mm 0.00 in0.0 mm 0.87 in22.1 mm
06:13 PM 37.5°F3.1°C 37.3°F2.9°C 99% 3.0 mph N4.8 kmh N -- 29.99 in1015.6 mb 0.05 in1.3 mm 0.00 in0.0 mm 0.87 in22.1 mm
06:18 PM 37.4°F3.0°C 37.1°F2.8°C 99% 4.0 mph NE6.4 kmh NE -- 29.98 in1015.2 mb 0.04 in1.0 mm 0.00 in0.0 mm 0.87 in22.1 mm
06:23 PM 37.4°F3.0°C 37.1°F2.8°C 99% 4.0 mph NNE6.4 kmh NNE -- 29.98 in1015.2 mb 0.05 in1.3 mm 0.12 in3.0 mm 0.88 in22.4 mm
06:28 PM 37.4°F3.0°C 37.1°F2.8°C 99% 3.0 mph N4.8 kmh N -- 29.99 in1015.6 mb 0.04 in1.0 mm 0.00 in0.0 mm 0.88 in22.4 mm
06:33 PM 37.5°F3.1°C 37.3°F2.9°C 99% 6.0 mph NNE9.7 kmh NNE -- 29.98 in1015.2 mb 0.04 in1.0 mm 0.00 in0.0 mm 0.88 in22.4 mm
06:38 PM 37.4°F3.0°C 37.1°F2.8°C 99% 4.0 mph N6.4 kmh N -- 29.98 in1015.2 mb 0.03 in0.8 mm 0.00 in0.0 mm 0.88 in22.4 mm
06:43 PM 37.5°F3.1°C 37.3°F2.9°C 99% 3.0 mph NE4.8 kmh NE -- 29.98 in1015.2 mb 0.03 in0.8 mm 0.00 in0.0 mm 0.88 in22.4 mm
06:48 PM 37.6°F3.1°C 37.3°F2.9°C 99% 4.0 mph N6.4 kmh N -- 29.98 in1015.2 mb 0.02 in0.5 mm 0.00 in0.0 mm 0.88 in22.4 mm
06:53 PM 37.5°F3.1°C 37.3°F2.9°C 99% 6.0 mph N9.7 kmh N -- 29.98 in1015.2 mb 0.02 in0.5 mm 0.00 in0.0 mm 0.88 in22.4 mm
06:58 PM 37.5°F3.1°C 37.3°F2.9°C 99% 3.0 mph N4.8 kmh N -- 29.98 in1015.2 mb 0.01 in0.3 mm 0.00 in0.0 mm 0.88 in22.4 mm
07:03 PM 37.5°F3.1°C 37.3°F2.9°C 99% 6.0 mph N9.7 kmh N -- 29.98 in1015.2 mb 0.01 in0.3 mm 0.00 in0.0 mm 0.88 in22.4 mm
07:08 PM 37.6°F3.1°C 37.3°F2.9°C 99% 5.0 mph NE8.0 kmh NE -- 29.97 in1014.9 mb 0.01 in0.3 mm 0.00 in0.0 mm 0.88 in22.4 mm
07:13 PM 37.6°F3.1°C 37.3°F2.9°C 99% 5.0 mph N8.0 kmh N -- 29.96 in1014.6 mb 0.01 in0.3 mm 0.00 in0.0 mm 0.88 in22.4 mm
07:18 PM 37.7°F3.2°C 37.5°F3.1°C 99% 4.0 mph NE6.4 kmh NE -- 29.97 in1014.9 mb 0.00 in0.0 mm 0.00 in0.0 mm 0.88 in22.4 mm
07:23 PM 37.8°F3.2°C 37.5°F3.1°C 99% 4.0 mph N6.4 kmh N -- 29.97 in1014.9 mb 0.00 in0.0 mm 0.00 in0.0 mm 0.88 in22.4 mm
07:28 PM 37.7°F3.2°C 37.5°F3.1°C 99% 4.0 mph NE6.4 kmh NE -- 29.97 in1014.9 mb 0.00 in0.0 mm 0.00 in0.0 mm 0.88 in22.4 mm
07:33 PM 37.8°F3.2°C 37.5°F3.1°C 99% 5.0 mph NNE8.0 kmh NNE -- 29.98 in1015.2 mb 0.01 in0.3 mm 0.12 in3.0 mm 0.89 in22.6 mm
07:38 PM 37.8°F3.2°C 37.5°F3.1°C 99% 7.0 mph NNE11.3 kmh NNE -- 29.96 in1014.6 mb 0.01 in0.3 mm 0.00 in0.0 mm 0.89 in22.6 mm
07:43 PM 37.8°F3.2°C 37.5°F3.1°C 99% 4.0 mph N6.4 kmh N -- 29.96 in1014.6 mb 0.02 in0.5 mm 0.12 in3.0 mm 0.90 in22.9 mm
07:48 PM 37.9°F3.3°C 37.7°F3.2°C 99% 3.0 mph ENE4.8 kmh ENE -- 29.96 in1014.6 mb 0.02 in0.5 mm 0.00 in0.0 mm 0.90 in22.9 mm
07:53 PM 38.0°F3.3°C 37.7°F3.2°C 99% 3.0 mph N4.8 kmh N -- 29.96 in1014.6 mb 0.02 in0.5 mm 0.00 in0.0 mm 0.90 in22.9 mm
07:58 PM 37.9°F3.3°C 37.7°F3.2°C 99% 4.0 mph NNE6.4 kmh NNE -- 29.96 in1014.6 mb 0.02 in0.5 mm 0.00 in0.0 mm 0.90 in22.9 mm
08:03 PM 38.0°F3.3°C 37.7°F3.2°C 99% 6.0 mph NNE9.7 kmh NNE -- 29.95 in1014.2 mb 0.02 in0.5 mm 0.00 in0.0 mm 0.90 in22.9 mm
08:08 PM 38.0°F3.3°C 37.7°F3.2°C 99% 5.0 mph NE8.0 kmh NE -- 29.96 in1014.6 mb 0.02 in0.5 mm 0.00 in0.0 mm 0.90 in22.9 mm
08:13 PM 38.1°F3.4°C 37.9°F3.3°C 99% 4.0 mph NNW6.4 kmh NNW -- 29.95 in1014.2 mb 0.02 in0.5 mm 0.00 in0.0 mm 0.90 in22.9 mm
08:18 PM 38.1°F3.4°C 37.9°F3.3°C 99% 5.0 mph N8.0 kmh N -- 29.95 in1014.2 mb 0.02 in0.5 mm 0.00 in0.0 mm 0.90 in22.9 mm
08:23 PM 38.2°F3.4°C 37.9°F3.3°C 99% 5.0 mph N8.0 kmh N -- 29.95 in1014.2 mb 0.02 in0.5 mm 0.00 in0.0 mm 0.90 in22.9 mm
08:28 PM 38.2°F3.4°C 37.9°F3.3°C 99% 2.0 mph NE3.2 kmh NE -- 29.94 in1013.9 mb 0.01 in0.3 mm 0.00 in0.0 mm 0.90 in22.9 mm
08:33 PM 38.3°F3.5°C 38.0°F3.3°C 99% 3.0 mph NE4.8 kmh NE -- 29.93 in1013.5 mb 0.01 in0.3 mm 0.00 in0.0 mm 0.90 in22.9 mm
08:38 PM 38.3°F3.5°C 38.0°F3.3°C 99% 3.0 mph NE4.8 kmh NE -- 29.94 in1013.9 mb 0.00 in0.0 mm 0.00 in0.0 mm 0.90 in22.9 mm
08:43 PM 38.3°F3.5°C 38.0°F3.3°C 99% 4.0 mph NNE6.4 kmh NNE -- 29.93 in1013.5 mb 0.00 in0.0 mm 0.00 in0.0 mm 0.90 in22.9 mm
08:48 PM 38.4°F3.6°C 38.2°F3.4°C 99% 3.0 mph NE4.8 kmh NE -- 29.93 in1013.5 mb 0.00 in0.0 mm 0.00 in0.0 mm 0.90 in22.9 mm
08:53 PM 38.6°F3.7°C 38.4°F3.6°C 99% 2.0 mph NE3.2 kmh NE -- 29.93 in1013.5 mb 0.00 in0.0 mm 0.00 in0.0 mm 0.90 in22.9 mm
08:58 PM 38.6°F3.7°C 38.4°F3.6°C 99% 4.0 mph NE6.4 kmh NE -- 29.92 in1013.2 mb 0.01 in0.3 mm 0.12 in3.0 mm 0.91 in23.1 mm
09:03 PM 38.5°F3.6°C 38.2°F3.4°C 99% 5.0 mph NNE8.0 kmh NNE -- 29.92 in1013.2 mb 0.01 in0.3 mm 0.00 in0.0 mm 0.91 in23.1 mm
09:08 PM 38.6°F3.7°C 38.4°F3.6°C 99% 3.0 mph NE4.8 kmh NE -- 29.91 in1012.9 mb 0.01 in0.3 mm 0.00 in0.0 mm 0.91 in23.1 mm
09:13 PM 38.7°F3.7°C 38.4°F3.6°C 99% 4.0 mph NE6.4 kmh NE -- 29.91 in1012.9 mb 0.01 in0.3 mm 0.00 in0.0 mm 0.91 in23.1 mm
09:18 PM 38.7°F3.7°C 38.4°F3.6°C 99% 4.0 mph NE6.4 kmh NE -- 29.90 in1012.5 mb 0.01 in0.3 mm 0.00 in0.0 mm 0.91 in23.1 mm
09:23 PM 38.7°F3.7°C 38.4°F3.6°C 99% 3.0 mph NNE4.8 kmh NNE -- 29.90 in1012.5 mb 0.01 in0.3 mm 0.00 in0.0 mm 0.91 in23.1 mm
09:28 PM 38.8°F3.8°C 38.6°F3.7°C 99% 3.0 mph NE4.8 kmh NE -- 29.89 in1012.2 mb 0.01 in0.3 mm 0.00 in0.0 mm 0.91 in23.1 mm
09:33 PM 38.8°F3.8°C 38.6°F3.7°C 99% 3.0 mph N4.8 kmh N -- 29.89 in1012.2 mb 0.01 in0.3 mm 0.00 in0.0 mm 0.91 in23.1 mm
09:38 PM 38.8°F3.8°C 38.6°F3.7°C 99% 3.0 mph NE4.8 kmh NE -- 29.89 in1012.2 mb 0.02 in0.5 mm 0.12 in3.0 mm 0.92 in23.4 mm
09:43 PM 38.9°F3.8°C 38.6°F3.7°C 99% 2.0 mph N3.2 kmh N -- 29.88 in1011.9 mb 0.02 in0.5 mm 0.00 in0.0 mm 0.92 in23.4 mm
09:48 PM 38.9°F3.8°C 38.6°F3.7°C 99% 3.0 mph NE4.8 kmh NE -- 29.87 in1011.5 mb 0.01 in0.3 mm 0.00 in0.0 mm 0.92 in23.4 mm
09:53 PM 38.9°F3.8°C 38.6°F3.7°C 99% 5.0 mph N8.0 kmh N -- 29.87 in1011.5 mb 0.01 in0.3 mm 0.00 in0.0 mm 0.92 in23.4 mm
09:58 PM 39.0°F3.9°C 38.8°F3.8°C 99% 2.0 mph ENE3.2 kmh ENE -- 29.86 in1011.2 mb 0.01 in0.3 mm 0.00 in0.0 mm 0.92 in23.4 mm
10:03 PM 39.0°F3.9°C 38.8°F3.8°C 99% 4.0 mph N6.4 kmh N -- 29.86 in1011.2 mb 0.01 in0.3 mm 0.00 in0.0 mm 0.92 in23.4 mm
10:08 PM 39.1°F3.9°C 38.8°F3.8°C 99% 6.0 mph NNE9.7 kmh NNE -- 29.86 in1011.2 mb 0.01 in0.3 mm 0.00 in0.0 mm 0.92 in23.4 mm
10:13 PM 39.2°F4.0°C 38.9°F3.8°C 99% 3.0 mph NNE4.8 kmh NNE -- 29.85 in1010.8 mb 0.01 in0.3 mm 0.00 in0.0 mm 0.92 in23.4 mm
10:18 PM 39.2°F4.0°C 38.9°F3.8°C 99% 2.0 mph NE3.2 kmh NE -- 29.85 in1010.8 mb 0.01 in0.3 mm 0.00 in0.0 mm 0.92 in23.4 mm
10:23 PM 39.3°F4.1°C 39.1°F3.9°C 99% 4.0 mph NE6.4 kmh NE -- 29.84 in1010.5 mb 0.01 in0.3 mm 0.00 in0.0 mm 0.92 in23.4 mm
10:28 PM 39.4°F4.1°C 39.1°F3.9°C 99% 7.0 mph NNE11.3 kmh NNE -- 29.84 in1010.5 mb 0.00 in0.0 mm 0.00 in0.0 mm 0.92 in23.4 mm
10:33 PM 39.3°F4.1°C 39.1°F3.9°C 99% 3.0 mph ENE4.8 kmh ENE -- 29.84 in1010.5 mb 0.00 in0.0 mm 0.00 in0.0 mm 0.92 in23.4 mm
10:38 PM 39.5°F4.2°C 39.3°F4.1°C 99% 4.0 mph NE6.4 kmh NE -- 29.84 in1010.5 mb 0.00 in0.0 mm 0.00 in0.0 mm 0.92 in23.4 mm
10:43 PM 39.6°F4.2°C 39.3°F4.1°C 99% 3.0 mph NNE4.8 kmh NNE -- 29.83 in1010.2 mb 0.00 in0.0 mm 0.00 in0.0 mm 0.92 in23.4 mm
10:48 PM 39.6°F4.2°C 39.3°F4.1°C 99% 3.0 mph N4.8 kmh N -- 29.83 in1010.2 mb 0.00 in0.0 mm 0.00 in0.0 mm 0.92 in23.4 mm
10:53 PM 39.7°F4.3°C 39.7°F4.3°C 100% 3.0 mph NNE4.8 kmh NNE -- 29.83 in1010.2 mb 0.00 in0.0 mm 0.00 in0.0 mm 0.92 in23.4 mm
10:58 PM 39.7°F4.3°C 39.7°F4.3°C 100% 6.0 mph NNE9.7 kmh NNE -- 29.83 in1010.2 mb 0.00 in0.0 mm 0.00 in0.0 mm 0.92 in23.4 mm
11:03 PM 39.8°F4.3°C 39.7°F4.3°C 100% 3.0 mph N4.8 kmh N -- 29.83 in1010.2 mb 0.00 in0.0 mm 0.00 in0.0 mm 0.92 in23.4 mm
11:08 PM 39.8°F4.3°C 39.7°F4.3°C 100% 4.0 mph NE6.4 kmh NE -- 29.83 in1010.2 mb 0.00 in0.0 mm 0.00 in0.0 mm 0.92 in23.4 mm
11:13 PM 39.7°F4.3°C 39.7°F4.3°C 100% 4.0 mph NNW6.4 kmh NNW -- 29.83 in1010.2 mb 0.00 in0.0 mm 0.00 in0.0 mm 0.92 in23.4 mm
11:18 PM 39.7°F4.3°C 39.7°F4.3°C 100% 2.0 mph N3.2 kmh N -- 29.83 in1010.2 mb 0.00 in0.0 mm 0.00 in0.0 mm 0.92 in23.4 mm
11:23 PM 39.7°F4.3°C 39.7°F4.3°C 100% 4.0 mph N6.4 kmh N -- 29.82 in1009.8 mb 0.00 in0.0 mm 0.00 in0.0 mm 0.92 in23.4 mm
11:28 PM 39.8°F4.3°C 39.7°F4.3°C 100% 4.0 mph N6.4 kmh N -- 29.82 in1009.8 mb 0.00 in0.0 mm 0.00 in0.0 mm 0.92 in23.4 mm
11:33 PM 39.7°F4.3°C 39.7°F4.3°C 100% 4.0 mph NE6.4 kmh NE -- 29.82 in1009.8 mb 0.00 in0.0 mm 0.00 in0.0 mm 0.92 in23.4 mm
11:38 PM 39.8°F4.3°C 39.7°F4.3°C 100% 4.0 mph NNE6.4 kmh NNE -- 29.81 in1009.5 mb 0.00 in0.0 mm 0.00 in0.0 mm 0.92 in23.4 mm
11:43 PM 39.8°F4.3°C 39.7°F4.3°C 100% 3.0 mph N4.8 kmh N -- 29.81 in1009.5 mb 0.00 in0.0 mm 0.00 in0.0 mm 0.92 in23.4 mm
11:48 PM 39.8°F4.3°C 39.7°F4.3°C 100% 2.0 mph NW3.2 kmh NW -- 29.81 in1009.5 mb 0.00 in0.0 mm 0.00 in0.0 mm 0.92 in23.4 mm
11:54 PM 39.8°F4.3°C 39.7°F4.3°C 100% 6.0 mph NNE9.7 kmh NNE -- 29.80 in1009.1 mb 0.00 in0.0 mm 0.00 in0.0 mm 0.60 in15.2 mm
11:58 PM 39.6°F4.2°C 39.6°F4.2°C 100% 5.0 mph NE8.0 kmh NE -- 29.81 in1009.5 mb 0.00 in0.0 mm 0.00 in0.0 mm 0.60 in15.2 mm